sensor_id;sensor_type;location;lat;lon;timestamp;temperature;humidity
41344;DHT22;27089;50.022;7.604;2024-02-14T00:00:09;7.00;99.90
41344;DHT22;27089;50.022;7.604;2024-02-14T00:02:39;7.00;99.90
41344;DHT22;27089;50.022;7.604;2024-02-14T00:05:07;6.90;99.90
41344;DHT22;27089;50.022;7.604;2024-02-14T00:07:36;6.90;99.90
41344;DHT22;27089;50.022;7.604;2024-02-14T00:10:03;7.00;99.90
41344;DHT22;27089;50.022;7.604;2024-02-14T00:12:31;6.90;99.90
41344;DHT22;27089;50.022;7.604;2024-02-14T00:14:58;6.90;99.90
41344;DHT22;27089;50.022;7.604;2024-02-14T00:17:26;6.90;99.90
41344;DHT22;27089;50.022;7.604;2024-02-14T00:19:53;7.00;99.90
41344;DHT22;27089;50.022;7.604;2024-02-14T00:22:21;7.00;99.90
41344;DHT22;27089;50.022;7.604;2024-02-14T00:24:49;6.90;99.90
41344;DHT22;27089;50.022;7.604;2024-02-14T00:27:16;6.90;99.90
41344;DHT22;27089;50.022;7.604;2024-02-14T00:29:43;6.90;99.90
41344;DHT22;27089;50.022;7.604;2024-02-14T00:32:12;6.90;99.90
41344;DHT22;27089;50.022;7.604;2024-02-14T00:34:41;7.00;99.90
41344;DHT22;27089;50.022;7.604;2024-02-14T00:37:08;7.00;99.90
41344;DHT22;27089;50.022;7.604;2024-02-14T00:39:36;7.00;99.90
41344;DHT22;27089;50.022;7.604;2024-02-14T00:42:03;7.10;99.90
41344;DHT22;27089;50.022;7.604;2024-02-14T00:44:31;7.10;99.90
41344;DHT22;27089;50.022;7.604;2024-02-14T00:46:58;7.10;99.90
41344;DHT22;27089;50.022;7.604;2024-02-14T00:49:27;7.00;99.90
41344;DHT22;27089;50.022;7.604;2024-02-14T00:51:55;7.00;99.90
41344;DHT22;27089;50.022;7.604;2024-02-14T00:54:22;7.00;99.90
41344;DHT22;27089;50.022;7.604;2024-02-14T00:56:49;7.00;99.90
41344;DHT22;27089;50.022;7.604;2024-02-14T00:59:16;7.00;99.90
41344;DHT22;27089;50.022;7.604;2024-02-14T01:01:43;7.00;99.90
41344;DHT22;27089;50.022;7.604;2024-02-14T01:04:11;7.00;99.90
41344;DHT22;27089;50.022;7.604;2024-02-14T01:06:38;7.10;99.90
41344;DHT22;27089;50.022;7.604;2024-02-14T01:09:06;7.10;99.90
41344;DHT22;27089;50.022;7.604;2024-02-14T01:11:34;7.10;99.90
41344;DHT22;27089;50.022;7.604;2024-02-14T01:14:05;7.10;99.90
41344;DHT22;27089;50.022;7.604;2024-02-14T01:16:32;7.10;99.90
41344;DHT22;27089;50.022;7.604;2024-02-14T01:18:59;7.10;99.90
41344;DHT22;27089;50.022;7.604;2024-02-14T01:21:26;7.10;99.90
41344;DHT22;27089;50.022;7.604;2024-02-14T01:23:53;7.10;99.90
41344;DHT22;27089;50.022;7.604;2024-02-14T01:26:21;7.10;99.90
41344;DHT22;27089;50.022;7.604;2024-02-14T01:28:48;7.10;99.90
41344;DHT22;27089;50.022;7.604;2024-02-14T01:31:16;7.10;99.90
41344;DHT22;27089;50.022;7.604;2024-02-14T01:33:43;7.20;99.90
41344;DHT22;27089;50.022;7.604;2024-02-14T01:36:11;7.10;99.90
41344;DHT22;27089;50.022;7.604;2024-02-14T01:38:38;7.10;99.90
41344;DHT22;27089;50.022;7.604;2024-02-14T01:41:06;7.20;99.90
41344;DHT22;27089;50.022;7.604;2024-02-14T01:43:34;7.10;99.90
41344;DHT22;27089;50.022;7.604;2024-02-14T01:46:05;7.10;99.90
41344;DHT22;27089;50.022;7.604;2024-02-14T01:48:33;7.10;99.90
41344;DHT22;27089;50.022;7.604;2024-02-14T01:51:01;7.10;99.90
41344;DHT22;27089;50.022;7.604;2024-02-14T01:53:30;7.10;99.90
41344;DHT22;27089;50.022;7.604;2024-02-14T01:55:58;7.10;99.90
41344;DHT22;27089;50.022;7.604;2024-02-14T01:58:26;7.10;99.90
41344;DHT22;27089;50.022;7.604;2024-02-14T02:00:56;7.20;99.90
41344;DHT22;27089;50.022;7.604;2024-02-14T02:03:24;7.20;99.90
41344;DHT22;27089;50.022;7.604;2024-02-14T02:05:52;7.20;99.90
41344;DHT22;27089;50.022;7.604;2024-02-14T02:08:19;7.20;99.90
41344;DHT22;27089;50.022;7.604;2024-02-14T02:10:46;7.30;99.90
41344;DHT22;27089;50.022;7.604;2024-02-14T02:13:13;7.30;99.90
41344;DHT22;27089;50.022;7.604;2024-02-14T02:15:41;7.30;99.90
41344;DHT22;27089;50.022;7.604;2024-02-14T02:18:11;7.20;99.90
41344;DHT22;27089;50.022;7.604;2024-02-14T02:20:38;7.30;99.90
41344;DHT22;27089;50.022;7.604;2024-02-14T02:23:11;7.20;99.90
41344;DHT22;27089;50.022;7.604;2024-02-14T02:25:40;7.20;99.90
41344;DHT22;27089;50.022;7.604;2024-02-14T02:28:07;7.20;99.90
41344;DHT22;27089;50.022;7.604;2024-02-14T02:30:35;7.20;99.90
41344;DHT22;27089;50.022;7.604;2024-02-14T02:33:02;7.20;99.90
41344;DHT22;27089;50.022;7.604;2024-02-14T02:35:29;7.20;99.90
41344;DHT22;27089;50.022;7.604;2024-02-14T02:37:56;7.30;99.90
41344;DHT22;27089;50.022;7.604;2024-02-14T02:40:25;7.30;99.90
41344;DHT22;27089;50.022;7.604;2024-02-14T02:42:53;7.30;99.90
41344;DHT22;27089;50.022;7.604;2024-02-14T02:45:20;7.30;99.90
41344;DHT22;27089;50.022;7.604;2024-02-14T02:47:47;7.30;99.90
41344;DHT22;27089;50.022;7.604;2024-02-14T02:50:17;7.30;99.90
41344;DHT22;27089;50.022;7.604;2024-02-14T02:52:45;7.30;99.90
41344;DHT22;27089;50.022;7.604;2024-02-14T02:55:12;7.30;99.90
41344;DHT22;27089;50.022;7.604;2024-02-14T02:57:42;7.30;99.90
41344;DHT22;27089;50.022;7.604;2024-02-14T03:00:10;7.30;99.90
41344;DHT22;27089;50.022;7.604;2024-02-14T03:02:39;7.30;99.90
41344;DHT22;27089;50.022;7.604;2024-02-14T03:05:09;7.30;99.90
41344;DHT22;27089;50.022;7.604;2024-02-14T03:07:43;7.30;99.90
41344;DHT22;27089;50.022;7.604;2024-02-14T03:10:11;7.30;99.90
41344;DHT22;27089;50.022;7.604;2024-02-14T03:12:39;7.30;99.90
41344;DHT22;27089;50.022;7.604;2024-02-14T03:15:08;7.40;99.90
41344;DHT22;27089;50.022;7.604;2024-02-14T03:17:36;7.30;99.90
41344;DHT22;27089;50.022;7.604;2024-02-14T03:20:04;7.40;99.90
41344;DHT22;27089;50.022;7.604;2024-02-14T03:22:36;7.40;99.90
41344;DHT22;27089;50.022;7.604;2024-02-14T03:25:04;7.40;99.90
41344;DHT22;27089;50.022;7.604;2024-02-14T03:27:32;7.40;99.90
41344;DHT22;27089;50.022;7.604;2024-02-14T03:30:01;7.40;99.90
41344;DHT22;27089;50.022;7.604;2024-02-14T03:32:30;7.40;99.90
41344;DHT22;27089;50.022;7.604;2024-02-14T03:34:57;7.40;99.90
41344;DHT22;27089;50.022;7.604;2024-02-14T03:37:26;7.40;99.90
41344;DHT22;27089;50.022;7.604;2024-02-14T03:39:53;7.40;99.90
41344;DHT22;27089;50.022;7.604;2024-02-14T03:42:20;7.40;99.90
41344;DHT22;27089;50.022;7.604;2024-02-14T03:44:47;7.40;99.90
41344;DHT22;27089;50.022;7.604;2024-02-14T03:47:14;7.40;99.90
41344;DHT22;27089;50.022;7.604;2024-02-14T03:49:42;7.40;99.90
41344;DHT22;27089;50.022;7.604;2024-02-14T03:52:09;7.40;99.90
41344;DHT22;27089;50.022;7.604;2024-02-14T03:54:37;7.40;99.90
41344;DHT22;27089;50.022;7.604;2024-02-14T03:57:04;7.40;99.90
41344;DHT22;27089;50.022;7.604;2024-02-14T03:59:36;7.40;99.90
41344;DHT22;27089;50.022;7.604;2024-02-14T04:02:04;7.40;99.90
41344;DHT22;27089;50.022;7.604;2024-02-14T04:04:32;7.40;99.90
41344;DHT22;27089;50.022;7.604;2024-02-14T04:07:02;7.40;99.90
41344;DHT22;27089;50.022;7.604;2024-02-14T04:09:29;7.40;99.90
41344;DHT22;27089;50.022;7.604;2024-02-14T04:11:56;7.40;99.90
41344;DHT22;27089;50.022;7.604;2024-02-14T04:14:23;7.30;99.90
41344;DHT22;27089;50.022;7.604;2024-02-14T04:16:50;7.40;99.90
41344;DHT22;27089;50.022;7.604;2024-02-14T04:19:17;7.40;99.90
41344;DHT22;27089;50.022;7.604;2024-02-14T04:21:46;7.30;99.90
41344;DHT22;27089;50.022;7.604;2024-02-14T04:24:14;7.30;99.90
41344;DHT22;27089;50.022;7.604;2024-02-14T04:26:41;7.40;99.90
41344;DHT22;27089;50.022;7.604;2024-02-14T04:29:08;7.40;99.90
41344;DHT22;27089;50.022;7.604;2024-02-14T04:31:35;7.40;99.90
41344;DHT22;27089;50.022;7.604;2024-02-14T04:34:02;7.30;99.90
41344;DHT22;27089;50.022;7.604;2024-02-14T04:36:30;7.40;99.90
41344;DHT22;27089;50.022;7.604;2024-02-14T04:38:58;7.30;99.90
41344;DHT22;27089;50.022;7.604;2024-02-14T04:41:26;7.30;99.90
41344;DHT22;27089;50.022;7.604;2024-02-14T04:43:53;7.30;99.90
41344;DHT22;27089;50.022;7.604;2024-02-14T04:46:20;7.30;99.90
41344;DHT22;27089;50.022;7.604;2024-02-14T04:48:48;7.30;99.90
41344;DHT22;27089;50.022;7.604;2024-02-14T04:51:15;7.30;99.90
41344;DHT22;27089;50.022;7.604;2024-02-14T04:53:42;7.40;99.90
41344;DHT22;27089;50.022;7.604;2024-02-14T04:56:09;7.40;99.90
41344;DHT22;27089;50.022;7.604;2024-02-14T04:58:37;7.40;99.90
41344;DHT22;27089;50.022;7.604;2024-02-14T05:01:04;7.40;99.90
41344;DHT22;27089;50.022;7.604;2024-02-14T05:03:34;7.40;99.90
41344;DHT22;27089;50.022;7.604;2024-02-14T05:06:02;7.40;99.90
41344;DHT22;27089;50.022;7.604;2024-02-14T05:08:31;7.40;99.90
41344;DHT22;27089;50.022;7.604;2024-02-14T05:10:59;7.50;99.90
41344;DHT22;27089;50.022;7.604;2024-02-14T05:13:26;7.50;99.90
41344;DHT22;27089;50.022;7.604;2024-02-14T05:15:54;7.50;99.90
41344;DHT22;27089;50.022;7.604;2024-02-14T05:18:22;7.50;99.90
41344;DHT22;27089;50.022;7.604;2024-02-14T05:20:49;7.50;99.90
41344;DHT22;27089;50.022;7.604;2024-02-14T05:23:16;7.60;99.90
41344;DHT22;27089;50.022;7.604;2024-02-14T05:25:44;7.60;99.90
41344;DHT22;27089;50.022;7.604;2024-02-14T05:28:11;7.60;99.90
41344;DHT22;27089;50.022;7.604;2024-02-14T05:30:40;7.60;99.90
41344;DHT22;27089;50.022;7.604;2024-02-14T05:33:08;7.60;99.90
41344;DHT22;27089;50.022;7.604;2024-02-14T05:35:36;7.60;99.90
41344;DHT22;27089;50.022;7.604;2024-02-14T05:38:03;7.70;99.90
41344;DHT22;27089;50.022;7.604;2024-02-14T05:40:33;7.70;99.90
41344;DHT22;27089;50.022;7.604;2024-02-14T05:43:05;7.70;99.90
41344;DHT22;27089;50.022;7.604;2024-02-14T05:45:33;7.60;99.90
41344;DHT22;27089;50.022;7.604;2024-02-14T05:48:00;7.60;99.90
41344;DHT22;27089;50.022;7.604;2024-02-14T05:50:28;7.60;99.90
41344;DHT22;27089;50.022;7.604;2024-02-14T05:52:55;7.60;99.90
41344;DHT22;27089;50.022;7.604;2024-02-14T05:55:24;7.60;99.90
41344;DHT22;27089;50.022;7.604;2024-02-14T05:57:51;7.60;99.90
41344;DHT22;27089;50.022;7.604;2024-02-14T06:00:19;7.60;99.90
41344;DHT22;27089;50.022;7.604;2024-02-14T06:02:46;7.60;99.90
41344;DHT22;27089;50.022;7.604;2024-02-14T06:05:14;7.60;99.90
41344;DHT22;27089;50.022;7.604;2024-02-14T06:07:42;7.60;99.90
41344;DHT22;27089;50.022;7.604;2024-02-14T06:10:11;7.70;99.90
41344;DHT22;27089;50.022;7.604;2024-02-14T06:12:38;7.70;99.90
41344;DHT22;27089;50.022;7.604;2024-02-14T06:15:07;7.70;99.90
41344;DHT22;27089;50.022;7.604;2024-02-14T06:17:34;7.70;99.90
41344;DHT22;27089;50.022;7.604;2024-02-14T06:20:00;7.70;99.90
41344;DHT22;27089;50.022;7.604;2024-02-14T06:22:31;7.70;99.90
41344;DHT22;27089;50.022;7.604;2024-02-14T06:25:00;7.70;99.90
41344;DHT22;27089;50.022;7.604;2024-02-14T06:27:31;7.70;99.90
41344;DHT22;27089;50.022;7.604;2024-02-14T06:29:58;7.80;99.90
41344;DHT22;27089;50.022;7.604;2024-02-14T06:32:26;7.80;99.90
41344;DHT22;27089;50.022;7.604;2024-02-14T06:34:53;7.80;99.90
41344;DHT22;27089;50.022;7.604;2024-02-14T06:37:20;7.80;99.90
41344;DHT22;27089;50.022;7.604;2024-02-14T06:39:47;7.80;99.90
41344;DHT22;27089;50.022;7.604;2024-02-14T06:42:17;7.80;99.90
41344;DHT22;27089;50.022;7.604;2024-02-14T06:44:45;7.80;99.90
41344;DHT22;27089;50.022;7.604;2024-02-14T06:47:13;7.80;99.90
41344;DHT22;27089;50.022;7.604;2024-02-14T06:49:40;7.80;99.90
41344;DHT22;27089;50.022;7.604;2024-02-14T06:52:07;7.80;99.90
41344;DHT22;27089;50.022;7.604;2024-02-14T06:54:34;7.80;99.90
41344;DHT22;27089;50.022;7.604;2024-02-14T06:57:01;7.80;99.90
41344;DHT22;27089;50.022;7.604;2024-02-14T06:59:29;7.80;99.90
41344;DHT22;27089;50.022;7.604;2024-02-14T07:01:56;7.90;99.90
41344;DHT22;27089;50.022;7.604;2024-02-14T07:04:25;7.90;99.90
41344;DHT22;27089;50.022;7.604;2024-02-14T07:06:53;7.90;99.90
41344;DHT22;27089;50.022;7.604;2024-02-14T07:09:20;7.90;99.90
41344;DHT22;27089;50.022;7.604;2024-02-14T07:11:47;8.00;99.90
41344;DHT22;27089;50.022;7.604;2024-02-14T07:14:14;8.00;99.90
41344;DHT22;27089;50.022;7.604;2024-02-14T07:16:43;8.00;99.90
41344;DHT22;27089;50.022;7.604;2024-02-14T07:19:10;8.10;99.90
41344;DHT22;27089;50.022;7.604;2024-02-14T07:21:37;8.10;99.90
41344;DHT22;27089;50.022;7.604;2024-02-14T07:24:05;8.10;99.90
41344;DHT22;27089;50.022;7.604;2024-02-14T07:26:32;8.10;99.90
41344;DHT22;27089;50.022;7.604;2024-02-14T07:28:59;8.20;99.90
41344;DHT22;27089;50.022;7.604;2024-02-14T07:31:29;8.20;99.90
41344;DHT22;27089;50.022;7.604;2024-02-14T07:34:00;8.20;99.90
41344;DHT22;27089;50.022;7.604;2024-02-14T07:36:29;8.30;99.90
41344;DHT22;27089;50.022;7.604;2024-02-14T07:38:56;8.30;99.90
41344;DHT22;27089;50.022;7.604;2024-02-14T07:41:23;8.30;99.90
41344;DHT22;27089;50.022;7.604;2024-02-14T07:43:51;8.30;99.90
41344;DHT22;27089;50.022;7.604;2024-02-14T07:46:18;8.30;99.90
41344;DHT22;27089;50.022;7.604;2024-02-14T07:48:46;8.40;99.90
41344;DHT22;27089;50.022;7.604;2024-02-14T07:51:15;8.40;99.90
41344;DHT22;27089;50.022;7.604;2024-02-14T07:53:42;8.50;99.90
41344;DHT22;27089;50.022;7.604;2024-02-14T07:56:09;8.50;99.90
41344;DHT22;27089;50.022;7.604;2024-02-14T07:58:39;8.50;99.90
41344;DHT22;27089;50.022;7.604;2024-02-14T08:01:09;8.60;99.90
41344;DHT22;27089;50.022;7.604;2024-02-14T08:03:36;8.60;99.90
41344;DHT22;27089;50.022;7.604;2024-02-14T08:06:04;8.60;99.90
41344;DHT22;27089;50.022;7.604;2024-02-14T08:08:32;8.60;99.90
41344;DHT22;27089;50.022;7.604;2024-02-14T08:11:00;8.50;99.90
41344;DHT22;27089;50.022;7.604;2024-02-14T08:13:27;8.50;99.90
41344;DHT22;27089;50.022;7.604;2024-02-14T08:15:54;8.50;99.90
41344;DHT22;27089;50.022;7.604;2024-02-14T08:18:21;8.60;99.90
41344;DHT22;27089;50.022;7.604;2024-02-14T08:20:49;8.60;99.90
41344;DHT22;27089;50.022;7.604;2024-02-14T08:23:16;8.60;99.90
41344;DHT22;27089;50.022;7.604;2024-02-14T08:25:44;8.70;99.90
41344;DHT22;27089;50.022;7.604;2024-02-14T08:28:11;8.80;99.90
41344;DHT22;27089;50.022;7.604;2024-02-14T08:30:38;8.80;99.90
41344;DHT22;27089;50.022;7.604;2024-02-14T08:33:05;8.90;99.90
41344;DHT22;27089;50.022;7.604;2024-02-14T08:35:32;8.90;99.90
41344;DHT22;27089;50.022;7.604;2024-02-14T08:38:00;9.10;99.90
41344;DHT22;27089;50.022;7.604;2024-02-14T08:40:27;9.20;99.90
41344;DHT22;27089;50.022;7.604;2024-02-14T08:42:55;9.20;99.90
41344;DHT22;27089;50.022;7.604;2024-02-14T08:45:22;9.20;99.90
41344;DHT22;27089;50.022;7.604;2024-02-14T08:47:49;9.20;99.90
41344;DHT22;27089;50.022;7.604;2024-02-14T08:50:17;9.20;99.90
41344;DHT22;27089;50.022;7.604;2024-02-14T08:52:44;9.20;99.90
41344;DHT22;27089;50.022;7.604;2024-02-14T08:55:11;9.20;99.90
41344;DHT22;27089;50.022;7.604;2024-02-14T08:57:42;9.30;99.90
41344;DHT22;27089;50.022;7.604;2024-02-14T09:00:12;9.30;99.90
41344;DHT22;27089;50.022;7.604;2024-02-14T09:02:40;9.30;99.90
41344;DHT22;27089;50.022;7.604;2024-02-14T09:05:08;9.30;99.90
41344;DHT22;27089;50.022;7.604;2024-02-14T09:07:35;9.30;99.90
41344;DHT22;27089;50.022;7.604;2024-02-14T09:10:03;9.40;99.90
41344;DHT22;27089;50.022;7.604;2024-02-14T09:12:31;9.50;99.90
41344;DHT22;27089;50.022;7.604;2024-02-14T09:14:59;9.60;99.90
41344;DHT22;27089;50.022;7.604;2024-02-14T09:17:27;9.60;99.90
41344;DHT22;27089;50.022;7.604;2024-02-14T09:19:54;9.70;99.90
41344;DHT22;27089;50.022;7.604;2024-02-14T09:22:21;9.70;99.90
41344;DHT22;27089;50.022;7.604;2024-02-14T09:24:49;9.70;99.90
41344;DHT22;27089;50.022;7.604;2024-02-14T09:27:18;9.80;99.90
41344;DHT22;27089;50.022;7.604;2024-02-14T09:29:45;9.90;99.90
41344;DHT22;27089;50.022;7.604;2024-02-14T09:32:12;10.00;99.90
41344;DHT22;27089;50.022;7.604;2024-02-14T09:34:40;10.10;99.90
41344;DHT22;27089;50.022;7.604;2024-02-14T09:37:07;10.10;99.90
41344;DHT22;27089;50.022;7.604;2024-02-14T09:39:35;10.30;99.90
41344;DHT22;27089;50.022;7.604;2024-02-14T09:42:07;10.30;99.90
41344;DHT22;27089;50.022;7.604;2024-02-14T09:44:35;10.40;99.90
41344;DHT22;27089;50.022;7.604;2024-02-14T09:47:05;10.50;99.90
41344;DHT22;27089;50.022;7.604;2024-02-14T09:49:32;10.50;99.90
41344;DHT22;27089;50.022;7.604;2024-02-14T09:52:03;10.60;99.90
41344;DHT22;27089;50.022;7.604;2024-02-14T09:54:31;10.60;99.90
41344;DHT22;27089;50.022;7.604;2024-02-14T09:57:00;10.60;99.90
41344;DHT22;27089;50.022;7.604;2024-02-14T09:59:29;10.70;99.90
41344;DHT22;27089;50.022;7.604;2024-02-14T10:01:56;10.80;99.90
41344;DHT22;27089;50.022;7.604;2024-02-14T10:04:23;10.90;99.90
41344;DHT22;27089;50.022;7.604;2024-02-14T10:06:51;10.90;99.90
41344;DHT22;27089;50.022;7.604;2024-02-14T10:09:20;11.00;99.90
41344;DHT22;27089;50.022;7.604;2024-02-14T10:11:48;11.20;99.90
41344;DHT22;27089;50.022;7.604;2024-02-14T10:14:15;11.50;99.90
41344;DHT22;27089;50.022;7.604;2024-02-14T10:16:42;11.70;99.90
41344;DHT22;27089;50.022;7.604;2024-02-14T10:19:15;12.20;99.90
41344;DHT22;27089;50.022;7.604;2024-02-14T10:21:43;12.60;99.90
41344;DHT22;27089;50.022;7.604;2024-02-14T10:24:10;12.80;99.90
41344;DHT22;27089;50.022;7.604;2024-02-14T10:26:38;13.00;99.90
41344;DHT22;27089;50.022;7.604;2024-02-14T10:29:06;13.10;99.90
41344;DHT22;27089;50.022;7.604;2024-02-14T10:31:36;13.10;99.90
41344;DHT22;27089;50.022;7.604;2024-02-14T10:34:04;13.10;99.90
41344;DHT22;27089;50.022;7.604;2024-02-14T10:36:33;13.20;99.90
41344;DHT22;27089;50.022;7.604;2024-02-14T10:39:01;13.50;99.90
41344;DHT22;27089;50.022;7.604;2024-02-14T10:41:30;13.40;99.90
41344;DHT22;27089;50.022;7.604;2024-02-14T10:44:02;13.30;99.90
41344;DHT22;27089;50.022;7.604;2024-02-14T10:46:32;13.10;99.90
41344;DHT22;27089;50.022;7.604;2024-02-14T10:49:03;12.90;99.90
41344;DHT22;27089;50.022;7.604;2024-02-14T10:51:32;12.60;99.90
41344;DHT22;27089;50.022;7.604;2024-02-14T10:54:02;12.40;99.90
41344;DHT22;27089;50.022;7.604;2024-02-14T10:56:32;12.30;99.90
41344;DHT22;27089;50.022;7.604;2024-02-14T10:59:01;12.00;99.90
41344;DHT22;27089;50.022;7.604;2024-02-14T11:01:29;11.80;99.90
41344;DHT22;27089;50.022;7.604;2024-02-14T11:03:59;11.70;99.90
41344;DHT22;27089;50.022;7.604;2024-02-14T11:06:26;11.50;99.90
41344;DHT22;27089;50.022;7.604;2024-02-14T11:09:00;11.40;99.90
41344;DHT22;27089;50.022;7.604;2024-02-14T11:11:32;11.30;99.90
41344;DHT22;27089;50.022;7.604;2024-02-14T11:13:59;11.30;99.90
41344;DHT22;27089;50.022;7.604;2024-02-14T11:16:30;11.20;99.90
41344;DHT22;27089;50.022;7.604;2024-02-14T11:19:09;11.20;99.90
41344;DHT22;27089;50.022;7.604;2024-02-14T11:21:36;11.30;99.90
41344;DHT22;27089;50.022;7.604;2024-02-14T11:24:05;11.20;99.90
41344;DHT22;27089;50.022;7.604;2024-02-14T11:26:38;11.30;99.90
41344;DHT22;27089;50.022;7.604;2024-02-14T11:29:06;11.30;99.90
41344;DHT22;27089;50.022;7.604;2024-02-14T11:31:35;11.10;99.90
41344;DHT22;27089;50.022;7.604;2024-02-14T11:34:04;11.10;99.90
41344;DHT22;27089;50.022;7.604;2024-02-14T11:36:32;11.00;99.90
41344;DHT22;27089;50.022;7.604;2024-02-14T11:39:03;11.00;99.90
41344;DHT22;27089;50.022;7.604;2024-02-14T11:41:32;11.00;99.90
41344;DHT22;27089;50.022;7.604;2024-02-14T11:44:01;11.00;99.90
41344;DHT22;27089;50.022;7.604;2024-02-14T11:46:30;11.00;99.90
41344;DHT22;27089;50.022;7.604;2024-02-14T11:49:00;11.00;99.90
41344;DHT22;27089;50.022;7.604;2024-02-14T11:51:28;11.10;99.90
41344;DHT22;27089;50.022;7.604;2024-02-14T11:53:56;11.20;99.90
41344;DHT22;27089;50.022;7.604;2024-02-14T11:56:30;11.30;99.90
41344;DHT22;27089;50.022;7.604;2024-02-14T11:58:59;11.30;99.90
41344;DHT22;27089;50.022;7.604;2024-02-14T12:01:30;11.40;99.90
41344;DHT22;27089;50.022;7.604;2024-02-14T12:03:59;11.40;99.90
41344;DHT22;27089;50.022;7.604;2024-02-14T12:06:28;11.50;99.90
41344;DHT22;27089;50.022;7.604;2024-02-14T12:08:57;11.50;99.90
41344;DHT22;27089;50.022;7.604;2024-02-14T12:11:27;11.50;99.90
41344;DHT22;27089;50.022;7.604;2024-02-14T12:13:54;11.50;99.90
41344;DHT22;27089;50.022;7.604;2024-02-14T12:16:22;11.50;99.90
41344;DHT22;27089;50.022;7.604;2024-02-14T12:19:05;11.60;99.90
41344;DHT22;27089;50.022;7.604;2024-02-14T12:21:35;11.60;99.90
41344;DHT22;27089;50.022;7.604;2024-02-14T12:24:04;11.70;99.90
41344;DHT22;27089;50.022;7.604;2024-02-14T12:26:33;11.70;99.90
41344;DHT22;27089;50.022;7.604;2024-02-14T12:29:01;11.70;99.90
41344;DHT22;27089;50.022;7.604;2024-02-14T12:31:30;11.70;99.90
41344;DHT22;27089;50.022;7.604;2024-02-14T12:33:57;11.60;99.90
41344;DHT22;27089;50.022;7.604;2024-02-14T12:36:29;11.60;99.90
41344;DHT22;27089;50.022;7.604;2024-02-14T12:38:56;11.50;99.90
41344;DHT22;27089;50.022;7.604;2024-02-14T12:41:23;11.50;99.90
41344;DHT22;27089;50.022;7.604;2024-02-14T12:43:52;11.60;99.90
41344;DHT22;27089;50.022;7.604;2024-02-14T12:46:19;11.60;99.90
41344;DHT22;27089;50.022;7.604;2024-02-14T12:48:46;11.60;99.90
41344;DHT22;27089;50.022;7.604;2024-02-14T12:51:13;11.60;99.90
41344;DHT22;27089;50.022;7.604;2024-02-14T12:53:42;11.60;99.90
41344;DHT22;27089;50.022;7.604;2024-02-14T12:56:09;11.50;99.90
41344;DHT22;27089;50.022;7.604;2024-02-14T12:58:36;11.50;99.90
41344;DHT22;27089;50.022;7.604;2024-02-14T13:01:04;11.50;99.90
41344;DHT22;27089;50.022;7.604;2024-02-14T13:03:32;11.50;99.90
41344;DHT22;27089;50.022;7.604;2024-02-14T13:05:59;11.40;99.90
41344;DHT22;27089;50.022;7.604;2024-02-14T13:08:27;11.30;99.90
41344;DHT22;27089;50.022;7.604;2024-02-14T13:10:56;11.30;99.90
41344;DHT22;27089;50.022;7.604;2024-02-14T13:13:24;11.20;99.90
41344;DHT22;27089;50.022;7.604;2024-02-14T13:15:52;11.20;99.90
41344;DHT22;27089;50.022;7.604;2024-02-14T13:18:19;11.10;99.90
41344;DHT22;27089;50.022;7.604;2024-02-14T13:20:46;11.10;99.90
41344;DHT22;27089;50.022;7.604;2024-02-14T13:23:13;11.10;99.90
41344;DHT22;27089;50.022;7.604;2024-02-14T13:25:41;11.10;99.90
41344;DHT22;27089;50.022;7.604;2024-02-14T13:28:09;11.10;99.90
41344;DHT22;27089;50.022;7.604;2024-02-14T13:30:36;11.10;99.90
41344;DHT22;27089;50.022;7.604;2024-02-14T13:33:03;11.10;99.90
41344;DHT22;27089;50.022;7.604;2024-02-14T13:35:31;11.10;99.90
41344;DHT22;27089;50.022;7.604;2024-02-14T13:38:04;11.00;99.90
41344;DHT22;27089;50.022;7.604;2024-02-14T13:40:31;11.00;99.90
41344;DHT22;27089;50.022;7.604;2024-02-14T13:42:59;11.00;99.90
41344;DHT22;27089;50.022;7.604;2024-02-14T13:45:39;11.00;99.90
41344;DHT22;27089;50.022;7.604;2024-02-14T13:48:08;10.90;99.90
41344;DHT22;27089;50.022;7.604;2024-02-14T13:50:36;10.90;99.90
41344;DHT22;27089;50.022;7.604;2024-02-14T13:53:03;10.90;99.90
41344;DHT22;27089;50.022;7.604;2024-02-14T13:55:31;10.90;99.90
41344;DHT22;27089;50.022;7.604;2024-02-14T13:57:58;10.90;99.90
41344;DHT22;27089;50.022;7.604;2024-02-14T14:00:25;10.80;99.90
41344;DHT22;27089;50.022;7.604;2024-02-14T14:02:54;10.80;99.90
41344;DHT22;27089;50.022;7.604;2024-02-14T14:05:21;10.70;99.90
41344;DHT22;27089;50.022;7.604;2024-02-14T14:07:48;10.80;99.90
41344;DHT22;27089;50.022;7.604;2024-02-14T14:10:15;10.80;99.90
41344;DHT22;27089;50.022;7.604;2024-02-14T14:12:42;10.80;99.90
41344;DHT22;27089;50.022;7.604;2024-02-14T14:15:10;10.80;99.90
41344;DHT22;27089;50.022;7.604;2024-02-14T14:17:37;10.80;99.90
41344;DHT22;27089;50.022;7.604;2024-02-14T14:20:06;10.90;99.90
41344;DHT22;27089;50.022;7.604;2024-02-14T14:22:34;11.00;99.90
41344;DHT22;27089;50.022;7.604;2024-02-14T14:25:03;11.10;99.90
41344;DHT22;27089;50.022;7.604;2024-02-14T14:27:30;11.20;99.90
41344;DHT22;27089;50.022;7.604;2024-02-14T14:29:57;11.30;99.90
41344;DHT22;27089;50.022;7.604;2024-02-14T14:32:24;11.30;99.90
41344;DHT22;27089;50.022;7.604;2024-02-14T14:34:51;11.30;99.90
41344;DHT22;27089;50.022;7.604;2024-02-14T14:37:20;11.30;99.90
41344;DHT22;27089;50.022;7.604;2024-02-14T14:39:48;11.40;99.90
41344;DHT22;27089;50.022;7.604;2024-02-14T14:42:16;11.40;99.90
41344;DHT22;27089;50.022;7.604;2024-02-14T14:44:43;11.40;99.90
41344;DHT22;27089;50.022;7.604;2024-02-14T14:47:10;11.40;99.90
41344;DHT22;27089;50.022;7.604;2024-02-14T14:49:37;11.40;99.90
41344;DHT22;27089;50.022;7.604;2024-02-14T14:52:05;11.40;99.90
41344;DHT22;27089;50.022;7.604;2024-02-14T14:54:33;11.40;99.90
41344;DHT22;27089;50.022;7.604;2024-02-14T14:57:01;11.40;99.90
41344;DHT22;27089;50.022;7.604;2024-02-14T14:59:34;11.40;99.90
41344;DHT22;27089;50.022;7.604;2024-02-14T15:02:01;11.40;99.90
41344;DHT22;27089;50.022;7.604;2024-02-14T15:04:31;11.30;99.90
41344;DHT22;27089;50.022;7.604;2024-02-14T15:07:00;11.30;99.90
41344;DHT22;27089;50.022;7.604;2024-02-14T15:09:27;11.20;99.90
41344;DHT22;27089;50.022;7.604;2024-02-14T15:11:56;11.10;99.90
41344;DHT22;27089;50.022;7.604;2024-02-14T15:14:23;11.10;99.90
41344;DHT22;27089;50.022;7.604;2024-02-14T15:16:50;11.20;99.90
41344;DHT22;27089;50.022;7.604;2024-02-14T15:19:18;11.20;99.90
41344;DHT22;27089;50.022;7.604;2024-02-14T15:21:45;11.10;99.90
41344;DHT22;27089;50.022;7.604;2024-02-14T15:24:12;11.10;99.90
41344;DHT22;27089;50.022;7.604;2024-02-14T15:26:39;11.10;99.90
41344;DHT22;27089;50.022;7.604;2024-02-14T15:29:16;11.00;99.90
41344;DHT22;27089;50.022;7.604;2024-02-14T15:32:01;11.00;99.90
41344;DHT22;27089;50.022;7.604;2024-02-14T15:34:49;11.00;99.90
41344;DHT22;27089;50.022;7.604;2024-02-14T15:37:16;10.90;99.90
41344;DHT22;27089;50.022;7.604;2024-02-14T15:39:44;10.90;99.90
41344;DHT22;27089;50.022;7.604;2024-02-14T15:42:11;10.90;99.90
41344;DHT22;27089;50.022;7.604;2024-02-14T15:44:40;10.90;99.90